FW7590 Weather Reports


Display with metric or nautical units.
time (UTC)temp
F
wind
direction
speed
MPH
gust
MPH
rain 1hr
in
rain 24hr
in
rain mn
in
humidity
%
barometer
mb
20220810103019 73 138 0.0 0.0 0.00 0.00 0.00 88 1016.7
20220810101518 73 138 0.0 0.0 0.00 0.00 0.00 87 1016.7
20220810100017 73 138 0.0 0.0 0.00 0.00 0.00 87 1016.7
20220810094526 74 138 0.0 0.0 0.00 0.00 0.00 87 1016.5
20220810093014 74 138 0.0 0.0 0.00 0.00 0.00 87 1016.4
20220810091517 74 138 0.0 0.0 0.00 0.00 0.00 86 1016.3
20220810090022 74 138 0.0 0.0 0.00 0.00 0.00 86 1016.3
20220810084522 74 138 0.0 0.0 0.00 0.00 0.00 85 1016.2
20220810083017 75 138 0.0 0.0 0.00 0.00 0.00 84 1016.1
20220810081524 75 138 0.0 0.0 0.00 0.00 0.00 83 1016.1
20220810080010 76 138 0.0 0.0 0.00 0.00 0.00 83 1016.2
20220810074506 76 138 0.0 0.0 0.00 0.00 0.00 82 1016.2
20220810073003 77 138 0.0 0.0 0.00 0.00 0.00 81 1016.3
20220810071600 77 138 0.0 0.0 0.00 0.00 0.00 80 1016.2
20220810070059 78 138 0.0 0.0 0.00 0.00 0.00 79 1016.1
20220810064601 78 138 0.0 0.0 0.00 0.00 0.00 79 1016.3
20220810063103 79 138 0.0 0.0 0.00 0.00 0.00 78 1016.4
20220810061605 79 138 0.0 0.0 0.00 0.00 0.00 79 1016.4
20220810060138 78 138 0.0 0.0 0.00 0.00 0.00 79 1016.4
20220810054708 78 138 0.0 0.0 0.00 0.00 0.00 79 1016.3
20220810053058 78 138 0.0 0.0 0.00 0.00 0.00 79 1016.3
20220810051614 78 138 0.0 0.0 0.00 0.00 0.00 79 1016.4
20220810050111 78 138 0.0 0.0 0.00 0.00 0.00 79 1016.3
20220810044606 78 138 0.0 0.0 0.00 0.00 0.00 78 1016.4
20220810043120 78 138 0.0 0.0 0.00 0.00 0.00 78 1016.2
20220810041606 79 138 0.0 0.0 0.00 0.00 0.00 77 1016.2
20220810040108 79 138 0.0 0.0 0.00 0.00 0.00 76 1016.2
20220810034606 79 138 0.0 0.0 0.00 0.00 0.00 75 1016.1
20220810033106 80 138 0.0 0.0 0.00 0.00 0.00 74 1015.7
20220810031600 80 138 0.0 0.0 0.00 0.00 0.00 74 1015.5
20220810030054 80 138 0.0 0.0 0.00 0.00 0.00 74 1015.3
20220810024609 80 138 0.0 0.0 0.00 0.00 0.00 74 1015.1
20220810023113 80 138 0.0 0.0 0.00 0.00 0.00 74 1015.2
20220810021626 80 138 0.0 0.0 0.00 0.00 0.00 74 1014.8
20220810020136 80 138 0.0 0.0 0.00 0.00 0.00 74 1014.9
20220810014712 80 138 0.0 0.0 0.00 0.00 0.00 73 1015.0
20220810013055 80 138 0.0 0.0 0.00 0.00 0.00 74 1015.0
20220810011556 80 138 0.0 0.0 0.00 0.00 0.00 73 1014.9
20220810010102 80 138 0.0 0.0 0.00 0.00 0.00 73 1014.9
20220810004607 81 121 0.0 0.0 0.00 0.00 0.00 71 1014.8
20220810003050 81 121 0.0 0.0 0.00 0.00 0.00 70 1014.8
20220810001558 81 121 0.0 0.0 0.00 0.00 0.00 70 1014.7
20220810000049 81 117 0.0 4.0 0.00 0.00 0.00 70 1014.6
20220809234606 81 101 0.0 0.0 0.00 0.00 0.00 71 1014.3
20220809233105 82 132 0.0 0.0 0.00 0.00 0.00 69 1014.3
20220809231551 82 132 0.0 0.0 0.00 0.00 0.00 67 1014.3
20220809230053 82 158 0.0 0.0 0.00 0.00 0.00 65 1014.3
20220809224605 82 195 0.0 6.0 0.00 0.00 0.00 65 1014.5
20220809223122 83 122 1.0 9.0 0.00 0.00 0.00 62 1014.3
20220809221705 84 117 0.0 7.0 0.00 0.00 0.00 58 1014.1
20220809220047 85 115 3.0 10.0 0.00 0.00 0.00 56 1013.7
20220809214549 88 105 1.0 10.0 0.00 0.00 0.00 50 1013.6
20220809213047 88 64 0.0 5.0 0.00 0.00 0.00 49 1013.8
20220809211550 93 28 2.0 7.0 0.00 0.00 0.00 42 1013.7
20220809210047 100 76 1.0 8.0 0.00 0.00 0.00 34 1013.6
20220809204603 102 302 0.0 6.0 0.00 0.00 0.00 30 1013.3
20220809203051 101 228 0.0 9.0 0.00 0.00 0.00 31 1013.3
20220809201545 99 232 0.0 1.0 0.00 0.00 0.00 32 1013.7
20220809200046 99 165 1.0 4.0 0.00 0.00 0.00 32 1014.0
20220809194537 100 306 0.0 4.0 0.00 0.00 0.00 32 1014.1
20220809193037 99 219 0.0 7.0 0.00 0.00 0.00 32 1014.4
20220809191541 99 132 0.0 11.0 0.00 0.00 0.00 32 1014.6
20220809190037 100 187 1.0 5.0 0.00 0.00 0.00 33 1014.9
20220809184537 99 151 0.0 3.0 0.00 0.00 0.00 33 1015.1
20220809183033 98 208 1.0 4.0 0.00 0.00 0.00 36 1015.5
20220809181531 97 140 0.0 1.0 0.00 0.00 0.00 37 1015.7
20220809180026 97 259 0.0 6.0 0.00 0.00 0.00 38 1016.1
20220809174525 96 166 0.0 0.0 0.00 0.00 0.00 39 1016.4
20220809173025 96 322 0.0 2.0 0.00 0.00 0.00 41 1016.4
20220809171523 94 340 0.0 1.0 0.00 0.00 0.00 43 1016.7
20220809170024 94 299 0.0 3.0 0.00 0.00 0.00 43 1016.8
20220809164548 93 237 0.0 1.0 0.00 0.00 0.00 45 1016.9
20220809163016 93 185 0.0 2.0 0.00 0.00 0.00 45 1016.9
20220809161522 93 254 0.0 3.0 0.00 0.00 0.00 46 1017.0
20220809160012 92 229 0.0 5.0 0.00 0.00 0.00 47 1017.2
20220809154520 90 197 0.0 3.0 0.00 0.00 0.00 50 1017.3
20220809153011 89 305 0.0 2.0 0.00 0.00 0.00 51 1017.4
20220809151520 89 275 0.0 2.0 0.00 0.00 0.00 52 1017.4
20220809150009 88 294 0.0 2.0 0.00 0.00 0.00 54 1017.5
20220809144611 87 236 0.0 3.0 0.00 0.00 0.00 55 1017.7
20220809143057 85 214 0.0 0.0 0.00 0.00 0.00 59 1017.9
20220809141552 84 202 0.0 0.0 0.00 0.00 0.00 61 1018.1
20220809140050 83 164 0.0 0.0 0.00 0.00 0.00 63 1017.9
20220809134554 82 164 0.0 0.0 0.00 0.00 0.00 64 1018.0
20220809133046 81 164 0.0 0.0 0.00 0.00 0.00 67 1017.9
20220809131542 80 164 0.0 0.0 0.00 0.00 0.00 69 1017.6
20220809130045 78 164 0.0 0.0 0.00 0.00 0.00 72 1017.3
20220809124544 77 164 0.0 0.0 0.00 0.00 0.00 73 1017.2
20220809123042 76 164 0.0 0.0 0.00 0.00 0.00 75 1016.9
20220809121541 75 164 0.0 0.0 0.00 0.00 0.00 74 1016.7
20220809120038 75 164 0.0 0.0 0.00 0.00 0.00 73 1016.2
20220809114533 75 164 0.0 0.0 0.00 0.00 0.00 72 1016.2
20220809113039 76 164 0.0 0.0 0.00 0.00 0.00 71 1015.9
20220809111527 77 164 0.0 0.0 0.00 0.00 0.00 70 1015.8
20220809110024 77 164 0.0 0.0 0.00 0.00 0.00 69 1015.6
20220809104530 77 164 0.0 0.0 0.00 0.00 0.00 68 1015.3